Iacsonvilla, FL (32257)

06:34 AM EDT die 25o September, anno 2016 (GMT -0400)
Spanish Wells | | Change Station

Elev 26 ft 30.21 °N, 81.61 °W | Updated 31 seconds ago

Clear
Serena
71.4 °F
Feels Like 71.4 °F
N
0.0
Ventus Variabilis Ventus from Zephyrus

Hodie
High -- | Low -- °F
--% Chance of Precip.
Yesterday
High -- | Low -- °F
Precip. -- in
Pressio 30.02 in
Visibilitas 10.0 milia passuum
Clouds Serena
Frigus in quo Ros apparet 68 °F
Umor 91%
Rainfall 0.00 in
Snow Depth Not available.
7:16 AM 7:18 PM
Waning Crescent, 29% visible
METAR KNIP 250953Z 00000KT 10SM CLR 26/23 A3003 RMK AO2 SLP166 T02560228
Pressio 30.02 in
Visibilitas 10.0 milia passuum
Clouds Serena
Frigus in quo Ros apparet 68 °F
Umor 91%
Rainfall 0.00 in
Snow Depth Not available.
7:16 AM 7:18 PM
Waning Crescent, 29% visible
METAR KNIP 250953Z 00000KT 10SM CLR 26/23 A3003 RMK AO2 SLP166 T02560228

10-Day Weather Forecast

Almanac

Astronomy

Sep. 25, 2016 Rise Set
Actual Time
Civil Twilight
Nautical Twilight
Astronomical Twilight
Moon
Length Of Visible Light
Length of Day
Tomorrow will be .
, % of the Moon is Illuminated

Today's Extremes

State Highs State Lows

Community

WunderPhotos

Upload Photos

1,941,566 photos uploaded!

WunderBlog® & News

Nearby

Air Quality

  Air Quality AQ Index Pollutant
Not available.

Snow Depth

Station Depth Elevation

Earthquake Activity

City Distance Mag. Time & Date
Minimum magnitude displayed is 2.5.

Coastal Water Temperatures

Locus Calor

Stations

Nearby Weather Stations

Station Location Temp Frigus Venti Frigus in quo Ros apparet Umor Ventus Precip. Elev Renovata Type
                   

Watches & Warnings

There are currently no watches in effect.